Redwood City, CA (94065)

9:56 PM PST on November 22, 2014 (GMT -0800)
Neighborhood 4 | Change Station
CLOSE
Current Station
Personal Weather Station
Location: Foster City, CA
Elevation: 12 ft
Nearby Weather Stations

Elev 12 ft 37.55 °N, 122.26 °W | Updated 11 seconds ago

Clear
Clear
54.6 °F
Feels Like 54.6 °F
N
0.0
Wind Variable Wind from WSW
Gusts 0.0 mph

Today
High -- | Low -- °F
--% Chance of Precip.
Yesterday
High -- | Low -- °F
Precip. -- in
6:56 AM 4:53 PM
New Moon, 1% visible
Pressure 30.24 in
Visibility 10.0 miles
Clouds Clear
Dew Point 50 °F
Humidity 84%
Rainfall 0.02 in
Snow Depth Not available.
UV 0.0 out of 12
Pollen .40 out of 12
Air Quality Not available.
Flu Activity Not available.
METAR KSQL 230530Z AUTO 30003KT 10SM CLR 13/09 A3024 RMK AO2

More Conditions Fewer Conditions

Pressure 30.24 in
Visibility 10.0 miles
Clouds Clear
Dew Point 50 °F
Humidity 84%
Rainfall 0.02 in
Snow Depth Not available.
UV 0.0 out of 12
Pollen .40 out of 12
Air Quality Not available.
Flu Activity Not available.
METAR KSQL 230530Z AUTO 30003KT 10SM CLR 13/09 A3024 RMK AO2

More Conditions Fewer Conditions

10-Day Weather Forecast

Almanac

Astronomy

Nov. 22, 2014 Rise Set
Actual Time
Civil Twilight
Nautical Twilight
Astronomical Twilight
Moon
Length of Visible Light
Length of Day
Tomorrow will be .
, % of the Moon is Illuminated

Today's Extremes

State Highs State Lows

Community

WunderPhotos

Upload Photos

1,773,017 photos uploaded!

WunderBlogs® & News

Nearby

Air Quality

  Air Quality AQ Index Pollutant
Not available.

Snow Depth

Station Depth Elevation

Earthquake Activity

City Distance Mag. Time & Date
Minimum magnitude displayed is 2.5.

Coastal Water Temperatures

Place Temperature

Nearby Weather Stations